Hovedside
METAR-TAF:

METAR-TAF

Lufthavner :

Simón Bolívar internasjonale lufthavn

Caracas, Venezuela

breddegrad: 10-36N, lengdegrad: 066-59W, høyde over havet: 43 m

Gjeldene værobservasjon

Denne rapporten ble laget for 17 minutter siden, klokken 12:00 UTC
Flau vind
Temperatur 24°C
Luftfuktighet 83%
Trykk 1011 hPa
Sikt 10 km eller mer
Få skyer i en høyde av 1600 ft

METAR: SVMI 181200Z 00000KT 9999 FEW016 24/21 Q1011

Tid: 08:17 (12:17 UTC)

Varsel

Denne rapporten ble laget for 2 timer og 17 minutter siden, klokken 10:00 UTC
Varsel gyldig fra 18. klokken 12 UTC til 19. klokken 12 UTC
Vind kt fra Nord
Sikt 10 km eller mer
Få skyer i en høyde av 1600 ft
Blir
fra 18. klokken 14 UTC til 18. klokken 20 UTC
Vind 10 kt fra Nordøst
Spredte skyer i en høyde av 1600 ft

TAF: SVMI 181000Z 1812/1912 00000KT 9999 FEW016 TX32/18Z TN24/08Z BECMG 1814/1820 05010KT SCT016

Værobservasjoner og værvarsel for over 4000 flyplasser (METAR- og TAF-rapporter).

Tilgjengelige stasjoner er representert av de røde og gule prikkene på kartet.

Hold musepekeren over prikken for å se navnet på stasjonen.

Klikk så for å se værobservasjoner og -varsler.

For å forandre kartet kan du klikke på den grønne knappen med svart kryss for å zoome inn, på den grønne knappen med strek for å zoome ut, eller på de grønne pilene for å se tilstøtende kart.


METAR-TAF: